Time;durP1;ratioP1;P1;durP2;ratioP2;P2;SDS_P1;SDS_P2;PMS_P1;PMS_P2;Temp;Humidity;BMP_temperature;BMP_pressure;BME280_temperature;BME280_humidity;BME280_pressure;Samples;Min_cycle;Max_cycle;Signal;HPM_P1;HPM_P2
2022/04/05 00:02:16;;;;;;;23.58;13.18;;;;;;;12.32;59.31;99760.00;5077607;28;20060;-74
2022/04/05 00:04:42;;;;;;;25.00;13.52;;;;;;;12.40;58.69;99752.00;5077800;28;20052;-74
2022/04/05 00:07:07;;;;;;;22.52;12.80;;;;;;;12.34;59.29;99745.56;5077592;28;20024;-74
2022/04/05 00:09:33;;;;;;;24.80;12.55;;;;;;;12.41;58.67;99745.69;5077554;28;20036;-73
2022/04/05 00:11:59;;;;;;;19.40;12.45;;;;;;;12.43;59.63;99744.53;5077847;28;20249;-74
2022/04/05 00:14:25;;;;;;;24.42;11.93;;;;;;;12.32;59.02;99725.50;5078749;28;20063;-80
2022/04/05 00:16:50;;;;;;;17.17;11.35;;;;;;;12.28;58.74;99753.38;5077495;28;20028;-73
2022/04/05 00:19:19;;;;;;;28.08;14.27;;;;;;;12.14;59.39;99746.97;5079369;28;20028;-77
2022/04/05 00:21:45;;;;;;;21.10;13.38;;;;;;;12.02;59.58;99749.19;5076954;28;20037;-78
2022/04/05 00:24:11;;;;;;;21.55;13.75;;;;;;;11.96;59.98;99744.56;5078010;28;20047;-74
2022/04/05 00:26:36;;;;;;;23.27;14.50;;;;;;;12.05;59.95;99746.19;5077353;28;20028;-74
2022/04/05 00:29:02;;;;;;;24.88;15.35;;;;;;;12.07;59.93;99740.69;5081959;28;20028;-74
2022/04/05 00:31:27;;;;;;;24.70;14.23;;;;;;;12.12;60.31;99755.09;5081506;28;20032;-77
2022/04/05 00:33:53;;;;;;;25.48;15.20;;;;;;;11.93;60.12;99749.38;5079689;28;20017;-74
2022/04/05 00:36:18;;;;;;;27.60;15.52;;;;;;;12.11;59.45;99740.19;5082252;28;20342;-77
2022/04/05 00:38:43;;;;;;;29.52;17.20;;;;;;;12.22;59.10;99746.94;5082123;28;20032;-74
2022/04/05 00:41:09;;;;;;;29.25;16.13;;;;;;;12.17;59.90;99745.81;5080971;28;20318;-77
2022/04/05 00:43:34;;;;;;;25.15;14.65;;;;;;;12.07;60.16;99743.34;5082036;28;20195;-74
2022/04/05 00:46:00;;;;;;;24.75;15.23;;;;;;;11.92;60.84;99739.75;5081713;28;20029;-77
2022/04/05 00:48:52;;;;;;;26.45;15.88;;;;;;;12.03;60.81;99736.72;5079735;28;20338;-73
2022/04/05 00:51:19;;;;;;;26.52;15.30;;;;;;;11.92;61.37;99723.84;5078630;28;20028;-73
2022/04/05 00:53:47;;;;;;;24.13;13.45;;;;;;;12.01;61.20;99725.47;5081963;28;20031;-73
2022/04/05 00:56:17;;;;;;;32.42;17.08;;;;;;;12.04;60.34;99723.28;5081156;28;20024;-77
2022/04/05 00:58:52;;;;;;;24.02;14.95;;;;;;;12.12;60.26;99727.75;5081013;28;20242;-78
2022/04/05 01:01:19;;;;;;;24.98;15.43;;;;;;;12.05;60.52;99711.69;5078013;28;20032;-74
2022/04/05 01:03:49;;;;;;;29.63;15.27;;;;;;;12.04;61.09;99711.84;5078389;28;20065;-74
2022/04/05 01:06:43;;;;;;;30.33;16.67;;;;;;;12.08;60.22;99713.16;5080624;28;20221;-74
2022/04/05 01:09:09;;;;;;;31.50;16.10;;;;;;;12.00;60.67;99707.88;5082708;28;20025;-77
2022/04/05 01:11:35;;;;;;;28.15;15.23;;;;;;;12.11;60.44;99713.66;5080202;28;20071;-77
2022/04/05 01:14:01;;;;;;;27.08;15.80;;;;;;;12.11;60.53;99711.00;5078470;28;20107;-74
2022/04/05 01:16:26;;;;;;;25.65;14.70;;;;;;;12.03;60.35;99700.41;5080214;28;20287;-77
2022/04/05 01:18:53;;;;;;;25.15;14.45;;;;;;;12.02;61.41;99705.88;5079017;28;20330;-77
2022/04/05 01:21:19;;;;;;;27.67;14.80;;;;;;;11.99;63.08;99692.97;5081450;28;20031;-74
2022/04/05 01:24:09;;;;;;;26.25;14.15;;;;;;;12.02;63.47;99698.75;5081400;28;20044;-74
2022/04/05 01:26:45;;;;;;;25.83;14.48;;;;;;;11.96;63.07;99691.47;5081231;28;20219;-76
2022/04/05 01:29:13;;;;;;;23.77;13.68;;;;;;;12.00;62.46;99692.78;5076767;28;20059;-74
2022/04/05 01:31:40;;;;;;;23.65;13.88;;;;;;;12.01;61.90;99685.66;5077795;28;20028;-80
2022/04/05 01:34:07;;;;;;;19.90;13.07;;;;;;;11.90;61.30;99670.13;5078915;28;20318;-74
2022/04/05 01:36:33;;;;;;;22.73;13.68;;;;;;;11.88;61.46;99667.63;5081273;28;20056;-73
2022/04/05 01:38:59;;;;;;;22.23;14.10;;;;;;;11.88;62.03;99683.56;5080000;28;20055;-77
2022/04/05 01:41:24;;;;;;;24.02;13.93;;;;;;;11.97;63.26;99682.53;5078480;28;20024;-77
2022/04/05 01:43:50;;;;;;;22.95;14.32;;;;;;;11.74;65.41;99681.59;5080746;28;20059;-73
2022/04/05 01:46:15;;;;;;;29.85;13.77;;;;;;;11.60;66.42;99677.81;5079835;28;20051;-73
2022/04/05 01:48:41;;;;;;;24.42;13.30;;;;;;;11.43;66.03;99677.00;5080179;28;20055;-73
2022/04/05 01:51:06;;;;;;;21.98;13.35;;;;;;;11.32;67.24;99669.41;5080660;28;20028;-77
2022/04/05 01:53:32;;;;;;;25.02;13.40;;;;;;;11.07;68.42;99659.81;5080013;28;20338;-74
2022/04/05 01:55:57;;;;;;;24.98;13.40;;;;;;;11.11;67.32;99672.56;5080899;28;20032;-73
2022/04/05 01:58:24;;;;;;;25.10;14.30;;;;;;;11.02;67.87;99655.03;5080992;28;20264;-73
2022/04/05 02:00:50;;;;;;;22.75;13.57;;;;;;;11.05;67.72;99654.69;5079594;28;20037;-79
2022/04/05 02:03:16;;;;;;;24.20;14.23;;;;;;;11.21;66.99;99664.44;5080738;28;20070;-73
2022/04/05 02:05:41;;;;;;;23.25;14.45;;;;;;;11.23;66.82;99666.94;5079763;28;20366;-77
2022/04/05 02:08:07;;;;;;;29.00;15.77;;;;;;;11.04;67.73;99676.06;5078103;28;20031;-74
2022/04/05 02:10:32;;;;;;;21.15;13.98;;;;;;;11.03;68.22;99675.22;5080729;28;20099;-74
2022/04/05 02:12:58;;;;;;;24.25;13.70;;;;;;;11.06;68.56;99668.78;5079437;28;20087;-76
2022/04/05 02:15:24;;;;;;;21.58;13.57;;;;;;;10.84;69.22;99681.69;5078137;28;20345;-76
2022/04/05 02:17:50;;;;;;;22.98;13.40;;;;;;;10.79;69.08;99681.34;5079691;28;20320;-76
2022/04/05 02:20:16;;;;;;;22.30;13.43;;;;;;;10.79;68.98;99672.59;5079532;28;20043;-73
2022/04/05 02:22:41;;;;;;;21.42;13.93;;;;;;;10.79;68.11;99662.00;5080312;28;20020;-77
2022/04/05 02:25:08;;;;;;;24.20;13.93;;;;;;;10.81;68.41;99670.59;5078922;28;20036;-77
2022/04/05 02:27:33;;;;;;;23.25;13.32;;;;;;;10.92;67.63;99667.63;5077791;28;20211;-77
2022/04/05 02:29:59;;;;;;;25.02;12.90;;;;;;;11.08;66.91;99667.63;5078180;28;20055;-77
2022/04/05 02:32:24;;;;;;;21.67;13.00;;;;;;;11.15;66.41;99683.66;5078918;28;20033;-76
2022/04/05 02:34:50;;;;;;;24.38;13.90;;;;;;;11.01;67.32;99673.75;5079411;28;20062;-74
2022/04/05 02:37:15;;;;;;;22.15;13.40;;;;;;;10.93;67.58;99674.56;5079642;28;20315;-73
2022/04/05 02:39:40;;;;;;;21.27;13.25;;;;;;;10.69;68.45;99651.56;5078860;28;20040;-74
2022/04/05 02:42:06;;;;;;;19.30;12.82;;;;;;;10.64;69.73;99647.75;5079904;28;20024;-73
2022/04/05 02:44:34;;;;;;;22.63;12.75;;;;;;;10.60;69.84;99664.97;5078484;28;20032;-76
2022/04/05 02:46:59;;;;;;;22.52;12.13;;;;;;;10.43;70.21;99662.28;5080086;28;20032;-73
2022/04/05 02:49:25;;;;;;;21.08;13.02;;;;;;;10.51;69.65;99664.13;5078672;28;20025;-74
2022/04/05 02:51:50;;;;;;;21.38;12.88;;;;;;;10.53;69.86;99667.44;5076348;28;20260;-77
2022/04/05 02:54:16;;;;;;;20.52;13.00;;;;;;;10.59;68.78;99665.97;5079607;28;20040;-76
2022/04/05 02:56:41;;;;;;;22.25;12.43;;;;;;;10.70;68.38;99662.97;5076805;28;20309;-73
2022/04/05 02:59:07;;;;;;;17.08;11.57;;;;;;;10.70;68.60;99663.81;5079601;28;20258;-76
2022/04/05 03:01:32;;;;;;;23.33;13.32;;;;;;;10.79;68.54;99654.88;5078107;28;20044;-73
2022/04/05 03:03:58;;;;;;;22.52;12.88;;;;;;;10.78;68.70;99669.13;5078635;28;20023;-76
2022/04/05 03:06:23;;;;;;;21.23;12.52;;;;;;;10.76;68.14;99667.63;5077728;28;20096;-73
2022/04/05 03:08:52;;;;;;;22.75;12.73;;;;;;;10.79;68.07;99675.25;5078530;28;20175;-74
2022/04/05 03:11:18;;;;;;;20.65;12.10;;;;;;;10.77;68.19;99666.63;5076733;28;20028;-77
2022/04/05 03:13:43;;;;;;;19.50;11.68;;;;;;;10.89;66.41;99657.34;5079003;28;20286;-75
2022/04/05 03:16:09;;;;;;;17.67;11.73;;;;;;;11.06;65.79;99661.66;5078343;28;20032;-74
2022/04/05 03:18:35;;;;;;;21.60;12.65;;;;;;;11.18;65.37;99656.84;5079272;28;20332;-76
2022/04/05 03:21:01;;;;;;;21.08;12.60;;;;;;;11.10;65.97;99648.91;5078772;28;20051;-73
2022/04/05 03:23:27;;;;;;;20.00;12.15;;;;;;;10.83;66.95;99647.44;5078307;28;20060;-76
2022/04/05 03:25:52;;;;;;;22.15;12.63;;;;;;;10.76;67.26;99647.25;5079487;28;20349;-77
2022/04/05 03:28:20;;;;;;;24.52;13.18;;;;;;;10.98;67.35;99648.41;5078260;28;20452;-77
2022/04/05 03:30:47;;;;;;;22.45;13.68;;;;;;;11.05;67.25;99654.69;5075898;28;20024;-73
2022/04/05 03:33:14;;;;;;;30.00;14.45;;;;;;;11.02;66.78;99652.38;5078884;28;20378;-74
2022/04/05 03:35:39;;;;;;;23.20;13.00;;;;;;;11.07;66.11;99643.94;5078007;28;20032;-73
2022/04/05 03:38:05;;;;;;;24.20;15.15;;;;;;;11.10;65.70;99654.19;5078014;28;20024;-76
2022/04/05 03:40:31;;;;;;;25.10;13.82;;;;;;;11.02;66.06;99651.56;5079087;28;20016;-73
2022/04/05 03:42:57;;;;;;;25.15;14.43;;;;;;;10.95;66.43;99658.50;5078035;28;20334;-73
2022/04/05 03:45:23;;;;;;;21.92;14.18;;;;;;;10.86;67.36;99663.00;5075405;28;20047;-77
2022/04/05 03:47:48;;;;;;;28.77;14.75;;;;;;;11.06;66.25;99669.59;5077586;28;20017;-73
2022/04/05 03:50:14;;;;;;;30.30;13.93;;;;;;;11.13;66.29;99662.63;5078128;28;20184;-74
2022/04/05 03:52:40;;;;;;;21.73;13.70;;;;;;;11.18;66.19;99672.72;5078646;28;20037;-76
2022/04/05 03:55:06;;;;;;;29.77;14.00;;;;;;;11.02;66.09;99657.69;5078001;28;20024;-74
2022/04/05 03:57:32;;;;;;;31.95;14.75;;;;;;;11.09;65.21;99660.50;5078898;28;20055;-73
2022/04/05 03:59:57;;;;;;;23.10;14.63;;;;;;;11.22;64.37;99666.09;5078018;28;20210;-73
2022/04/05 04:02:23;;;;;;;22.33;13.68;;;;;;;11.34;63.70;99662.09;5079081;28;20065;-77
2022/04/05 04:04:48;;;;;;;22.90;14.55;;;;;;;11.33;63.67;99667.56;5081629;28;20036;-77
2022/04/05 04:07:14;;;;;;;22.55;13.98;;;;;;;11.37;62.89;99669.72;5082027;28;20043;-73
2022/04/05 04:09:40;;;;;;;29.42;15.93;;;;;;;11.24;63.24;99672.06;5082759;28;20381;-73
2022/04/05 04:12:05;;;;;;;35.47;16.85;;;;;;;11.05;64.22;99670.59;5081669;28;20083;-73
2022/04/05 04:14:34;;;;;;;30.80;15.50;;;;;;;10.88;63.82;99672.41;5081871;28;20056;-77
2022/04/05 04:16:59;;;;;;;24.05;15.50;;;;;;;10.99;64.54;99673.91;5082106;28;20203;-76
2022/04/05 04:19:25;;;;;;;27.27;15.13;;;;;;;10.46;64.07;99667.25;5081423;28;20028;-80
2022/04/05 04:21:50;;;;;;;29.20;16.00;;;;;;;10.23;64.53;99663.53;5080381;28;20036;-73
2022/04/05 04:24:16;;;;;;;29.27;16.20;;;;;;;9.91;66.53;99666.88;5081669;28;20210;-77
2022/04/05 04:26:41;;;;;;;27.63;16.08;;;;;;;9.71;66.58;99668.97;5081527;28;20074;-76
2022/04/05 04:29:07;;;;;;;30.35;17.20;;;;;;;9.96;66.52;99661.94;5082594;28;20226;-73
2022/04/05 04:31:33;;;;;;;25.63;15.23;;;;;;;9.88;66.96;99660.09;5081559;28;20590;-76
2022/04/05 04:34:03;;;;;;;27.52;16.15;;;;;;;9.81;67.29;99668.84;5081790;28;20315;-73
2022/04/05 04:36:28;;;;;;;34.13;16.42;;;;;;;9.58;68.15;99666.75;5082148;28;20092;-73
2022/04/05 04:38:55;;;;;;;32.00;16.10;;;;;;;9.48;68.85;99666.03;5081342;28;20044;-73
2022/04/05 04:41:22;;;;;;;29.98;15.52;;;;;;;9.81;67.12;99672.31;5081064;28;20063;-76
2022/04/05 04:43:47;;;;;;;24.70;15.73;;;;;;;9.64;67.52;99651.25;5082152;28;20145;-74
2022/04/05 04:46:13;;;;;;;26.88;16.05;;;;;;;9.96;66.13;99655.81;5080987;28;20235;-74
2022/04/05 04:48:38;;;;;;;29.23;16.17;;;;;;;9.72;66.68;99669.78;5079624;28;20271;-76
2022/04/05 04:51:04;;;;;;;32.63;14.38;;;;;;;9.63;67.61;99674.19;5081696;28;20127;-76
2022/04/05 04:53:30;;;;;;;25.00;15.02;;;;;;;9.59;67.98;99680.78;5079154;28;20074;-76
2022/04/05 04:55:55;;;;;;;23.05;13.75;;;;;;;9.21;68.97;99674.91;5078931;28;20222;-76
2022/04/05 04:58:20;;;;;;;26.70;13.90;;;;;;;9.58;69.01;99672.03;5081231;28;20049;-73
2022/04/05 05:00:46;;;;;;;26.63;14.55;;;;;;;9.28;68.65;99675.97;5081144;28;20039;-73
2022/04/05 05:03:12;;;;;;;38.58;16.38;;;;;;;9.28;69.75;99683.88;5081691;28;20028;-73
2022/04/05 05:05:38;;;;;;;24.33;13.85;;;;;;;9.44;69.51;99654.13;5080823;28;20219;-76
2022/04/05 05:08:03;;;;;;;25.05;13.38;;;;;;;9.59;68.34;99672.88;5078976;28;20330;-73
2022/04/05 05:10:29;;;;;;;22.92;13.45;;;;;;;9.71;67.87;99681.34;5081105;28;20035;-76
2022/04/05 05:12:54;;;;;;;26.13;13.57;;;;;;;9.72;67.36;99670.63;5078292;28;20033;-73
2022/04/05 05:15:21;;;;;;;23.35;12.60;;;;;;;9.67;65.83;99649.09;5081927;28;20044;-73
2022/04/05 05:17:47;;;;;;;23.83;13.35;;;;;;;9.81;66.31;99660.91;5078308;28;20032;-76
2022/04/05 05:20:14;;;;;;;21.77;12.57;;;;;;;9.91;66.78;99688.03;5080798;28;20040;-80
2022/04/05 05:22:40;;;;;;;20.50;11.55;;;;;;;9.97;65.50;99682.13;5080902;28;20044;-80
2022/04/05 05:25:07;;;;;;;23.63;11.75;;;;;;;9.90;64.78;99673.16;5071023;28;20029;-73
2022/04/05 05:27:32;;;;;;;22.85;11.32;;;;;;;10.27;64.06;99693.16;5081271;28;20044;-73
2022/04/05 05:29:58;;;;;;;22.35;11.57;;;;;;;10.15;64.56;99688.13;5080199;28;20302;-74
2022/04/05 05:32:23;;;;;;;25.10;12.25;;;;;;;10.21;65.31;99674.28;5080976;28;20024;-73
2022/04/05 05:34:49;;;;;;;21.35;11.38;;;;;;;10.10;66.01;99681.66;5081134;28;20040;-76
2022/04/05 05:37:15;;;;;;;18.30;10.68;;;;;;;9.73;65.94;99682.84;5080237;28;20083;-77
2022/04/05 05:39:41;;;;;;;18.88;11.15;;;;;;;9.64;68.13;99690.91;5081123;28;20032;-73
2022/04/05 05:42:07;;;;;;;21.15;11.15;;;;;;;9.55;67.15;99688.22;5080220;28;20329;-76
2022/04/05 05:44:34;;;;;;;21.95;10.75;;;;;;;9.66;66.50;99692.41;5077805;28;20032;-74
2022/04/05 05:47:00;;;;;;;21.67;10.63;;;;;;;9.71;67.20;99694.56;5079132;28;20341;-74
2022/04/05 05:49:25;;;;;;;23.50;10.45;;;;;;;9.68;66.82;99689.59;5081113;28;20044;-76
2022/04/05 05:51:50;;;;;;;16.67;10.27;;;;;;;9.91;65.39;99695.97;5077970;28;20622;-73
2022/04/05 05:54:17;;;;;;;16.40;10.05;;;;;;;9.75;65.71;99694.09;5080051;28;20062;-73
2022/04/05 05:56:42;;;;;;;15.30;10.15;;;;;;;9.55;65.16;99695.31;5080614;28;20044;-73
2022/04/05 05:59:08;;;;;;;17.90;9.73;;;;;;;9.64;64.92;99689.06;5080157;28;20218;-79
2022/04/05 06:01:34;;;;;;;20.20;10.25;;;;;;;9.55;65.94;99698.78;5078991;28;20059;-74
2022/04/05 06:04:00;;;;;;;16.42;10.55;;;;;;;9.58;65.25;99689.72;5082823;28;20025;-73
2022/04/05 06:06:25;;;;;;;20.00;10.30;;;;;;;9.48;65.60;99694.28;5083571;28;20060;-77
2022/04/05 06:08:51;;;;;;;27.55;10.85;;;;;;;9.51;65.52;99694.78;5082612;28;20032;-74
2022/04/05 06:11:16;;;;;;;17.92;9.90;;;;;;;9.62;65.22;99700.78;5083392;28;20080;-73
2022/04/05 06:13:42;;;;;;;21.10;11.13;;;;;;;9.85;64.57;99704.56;5083643;28;20039;-73
2022/04/05 06:16:08;;;;;;;16.25;9.57;;;;;;;9.86;64.52;99669.19;5083590;28;20044;-75
2022/04/05 06:18:34;;;;;;;18.67;10.02;;;;;;;10.04;65.29;99696.38;5083547;28;20028;-73
2022/04/05 06:21:00;;;;;;;17.92;9.98;;;;;;;10.01;64.55;99685.28;5083282;28;20028;-77
2022/04/05 06:23:25;;;;;;;19.27;10.45;;;;;;;10.11;64.93;99681.50;5083585;28;20794;-74
2022/04/05 06:25:51;;;;;;;19.17;10.80;;;;;;;10.00;63.78;99679.16;5082565;28;20051;-76
2022/04/05 06:28:18;;;;;;;19.50;10.35;;;;;;;10.24;63.00;99686.38;5082312;28;20345;-73
2022/04/05 06:30:44;;;;;;;21.90;10.38;;;;;;;10.18;63.76;99695.75;5083301;28;20029;-73
2022/04/05 06:33:10;;;;;;;23.13;9.80;;;;;;;10.15;64.19;99700.53;5083140;28;20239;-76
2022/04/05 06:35:42;;;;;;;30.25;10.52;;;;;;;10.03;64.66;99704.47;5082049;28;20377;-80
2022/04/05 06:38:08;;;;;;;20.42;10.65;;;;;;;10.15;63.42;99698.72;5083243;28;20087;-74
2022/04/05 06:40:34;;;;;;;15.73;10.13;;;;;;;10.46;63.31;99700.84;5082893;28;20095;-73
2022/04/05 06:42:59;;;;;;;22.05;11.25;;;;;;;10.64;62.50;99696.25;5083013;28;20036;-77
2022/04/05 06:45:25;;;;;;;19.92;11.00;;;;;;;10.76;62.29;99707.34;5081720;28;20037;-77
2022/04/05 06:47:52;;;;;;;16.40;9.98;;;;;;;10.71;61.72;99688.47;5081652;28;20059;-74
2022/04/05 06:50:24;;;;;;;16.83;11.02;;;;;;;10.75;61.87;99713.63;5083200;28;20024;-75
2022/04/05 06:52:50;;;;;;;17.70;10.52;;;;;;;10.95;61.73;99714.97;5077830;28;20039;-73
2022/04/05 06:55:16;;;;;;;20.20;10.73;;;;;;;11.22;61.42;99712.97;5080888;28;20376;-76
2022/04/05 06:57:42;;;;;;;16.77;9.98;;;;;;;11.31;58.88;99717.28;5076090;28;20025;-73
2022/04/05 07:00:10;;;;;;;16.65;9.88;;;;;;;11.19;60.51;99679.69;5079352;28;20043;-76
2022/04/05 07:02:36;;;;;;;17.27;9.85;;;;;;;11.51;58.94;99721.25;5079406;28;20075;-77
2022/04/05 07:05:02;;;;;;;19.98;10.60;;;;;;;11.52;57.94;99714.97;5082686;28;20208;-77
2022/04/05 07:07:28;;;;;;;19.20;10.35;;;;;;;11.69;58.53;99702.50;5081946;28;20032;-74
2022/04/05 07:09:53;;;;;;;17.98;11.23;;;;;;;11.92;57.89;99702.63;5078316;28;20090;-80
2022/04/05 07:12:19;;;;;;;18.38;9.75;;;;;;;12.03;56.17;99704.88;5078229;28;20043;-77
2022/04/05 07:14:45;;;;;;;16.15;10.85;;;;;;;12.23;57.11;99711.44;5078675;28;20099;-78
2022/04/05 07:17:10;;;;;;;18.13;10.65;;;;;;;12.30;56.67;99699.13;5077435;28;20028;-78
2022/04/05 07:19:36;;;;;;;17.00;9.40;;;;;;;12.65;54.90;99705.75;5077352;28;20030;-78
2022/04/05 07:22:02;;;;;;;24.50;10.18;;;;;;;12.99;55.34;99705.31;5078535;28;20036;-78
2022/04/05 07:24:28;;;;;;;17.45;10.05;;;;;;;12.67;54.23;99702.91;5077319;28;20094;-74
2022/04/05 07:26:54;;;;;;;18.98;10.48;;;;;;;13.09;53.58;99716.53;5077226;28;20032;-74
2022/04/05 07:29:20;;;;;;;19.63;10.77;;;;;;;13.32;53.53;99713.06;5078075;28;20055;-78
2022/04/05 07:31:45;;;;;;;17.58;10.80;;;;;;;13.10;52.81;99706.72;5075329;28;20184;-74
2022/04/05 07:34:11;;;;;;;20.13;10.00;;;;;;;13.40;52.65;99707.66;5074962;28;20020;-78
2022/04/05 07:36:36;;;;;;;19.38;9.90;;;;;;;13.45;51.59;99709.78;5077754;28;20040;-78
2022/04/05 07:39:03;;;;;;;17.48;10.85;;;;;;;13.71;52.11;99702.22;5077055;28;20083;-78
2022/04/05 07:41:29;;;;;;;20.92;10.95;;;;;;;14.15;49.77;99693.38;5077143;28;20028;-74
2022/04/05 07:43:54;;;;;;;17.02;10.00;;;;;;;14.23;48.15;99698.59;5077798;28;20025;-74
2022/04/05 07:46:20;;;;;;;16.27;9.60;;;;;;;14.30;46.76;99681.66;5076839;28;20226;-80
2022/04/05 07:48:47;;;;;;;13.80;9.10;;;;;;;14.28;47.42;99696.19;5077953;28;20074;-81
2022/04/05 07:51:13;;;;;;;15.63;9.13;;;;;;;14.32;47.45;99702.78;5075013;28;20153;-78
2022/04/05 07:53:39;;;;;;;17.17;9.63;;;;;;;14.72;46.61;99700.63;5075931;28;20043;-78
2022/04/05 07:56:05;;;;;;;14.02;8.80;;;;;;;15.14;46.80;99703.28;5078260;28;20040;-74
2022/04/05 07:58:30;;;;;;;15.38;8.93;;;;;;;15.52;43.35;99689.59;5077070;28;20196;-78
2022/04/05 08:00:56;;;;;;;15.98;8.45;;;;;;;15.87;41.98;99677.13;5076516;28;20449;-78
2022/04/05 08:03:22;;;;;;;15.05;8.88;;;;;;;16.02;43.33;99683.16;5077324;28;20059;-78
2022/04/05 08:05:49;;;;;;;13.43;8.98;;;;;;;16.02;42.43;99687.69;5077447;28;20137;-74
2022/04/05 08:08:15;;;;;;;14.38;8.88;;;;;;;16.27;41.16;99652.22;5075920;28;20338;-78
2022/04/05 08:10:41;;;;;;;12.15;8.05;;;;;;;16.74;40.53;99687.97;5077253;28;20033;-74
2022/04/05 08:13:06;;;;;;;13.02;7.97;;;;;;;16.69;39.72;99678.91;5076435;28;20039;-74
2022/04/05 08:15:31;;;;;;;11.35;7.65;;;;;;;16.75;39.98;99676.25;5077419;28;20033;-74
2022/04/05 08:17:57;;;;;;;13.00;8.38;;;;;;;16.38;41.49;99666.84;5077292;28;20056;-76
2022/04/05 08:20:23;;;;;;;13.15;7.95;;;;;;;16.46;41.76;99674.69;5076993;28;20045;-78
2022/04/05 08:22:49;;;;;;;12.98;7.57;;;;;;;16.84;40.74;99674.19;5077609;28;20306;-80
2022/04/05 08:25:16;;;;;;;14.13;7.82;;;;;;;16.84;40.54;99672.34;5076683;28;20032;-74
2022/04/05 08:27:43;;;;;;;11.23;7.72;;;;;;;17.04;40.09;99676.88;5075469;28;20052;-74
2022/04/05 08:30:10;;;;;;;16.48;8.27;;;;;;;16.88;39.28;99673.59;5077952;28;20139;-75
2022/04/05 08:32:42;;;;;;;13.20;8.38;;;;;;;17.16;38.53;99673.38;5076647;28;20036;-74
2022/04/05 08:35:08;;;;;;;10.70;7.47;;;;;;;17.15;38.74;99670.91;5076488;28;21454;-74
2022/04/05 08:37:34;;;;;;;17.63;7.95;;;;;;;17.20;38.22;99671.94;5077047;28;20028;-78
2022/04/05 08:40:00;;;;;;;15.05;8.13;;;;;;;16.98;38.91;99672.34;5075795;28;20032;-77
2022/04/05 08:42:25;;;;;;;13.45;7.50;;;;;;;17.47;37.07;99647.81;5077618;28;20107;-77
2022/04/05 08:44:51;;;;;;;23.63;13.57;;;;;;;17.58;37.34;99657.91;5076714;28;20389;-77
2022/04/05 08:47:23;;;;;;;13.05;7.65;;;;;;;18.04;36.87;99651.63;5076405;28;20020;-74
2022/04/05 08:49:49;;;;;;;27.17;10.77;;;;;;;18.32;36.69;99636.03;5080084;28;20217;-76
2022/04/05 08:52:14;;;;;;;14.07;7.47;;;;;;;18.54;35.91;99641.88;5080388;28;20064;-74
2022/04/05 08:54:40;;;;;;;12.85;8.07;;;;;;;18.33;35.53;99626.94;5080976;28;20059;-74
2022/04/05 08:57:05;;;;;;;14.07;8.02;;;;;;;17.88;36.97;99630.69;5079954;28;20832;-74
2022/04/05 08:59:31;;;;;;;12.02;7.32;;;;;;;17.94;36.78;99632.50;5078477;28;20081;-75
2022/04/05 09:01:57;;;;;;;13.18;7.22;;;;;;;18.13;34.92;99624.38;5080289;28;20060;-75
2022/04/05 09:04:22;;;;;;;10.90;6.95;;;;;;;18.24;35.63;99617.50;5078547;28;20073;-75
2022/04/05 09:06:48;;;;;;;13.40;7.03;;;;;;;18.19;35.46;99618.16;5079939;28;20032;-74
2022/04/05 09:09:18;;;;;;;14.15;6.60;;;;;;;17.75;36.61;99610.13;5080321;28;20020;-78
2022/04/05 09:11:46;;;;;;;11.43;6.38;;;;;;;17.92;36.27;99603.25;5079596;28;20241;-78
2022/04/05 09:14:12;;;;;;;11.77;8.07;;;;;;;17.57;37.36;99608.06;5079654;28;20265;-74
2022/04/05 09:16:38;;;;;;;11.43;7.75;;;;;;;17.31;38.21;99602.78;5079318;28;20025;-75
2022/04/05 09:19:12;;;;;;;11.70;7.97;;;;;;;16.97;38.98;99607.34;5079879;28;20039;-78
2022/04/05 09:21:49;;;;;;;;;;;;;;;16.87;38.19;99606.94;5081658;28;20036;-78
2022/04/05 09:24:15;;;;;;;10.15;6.50;;;;;;;17.15;38.33;99596.00;5080204;28;19939;-74
2022/04/05 09:26:43;;;;;;;14.35;7.65;;;;;;;17.31;38.36;99594.75;5078171;28;20029;-74
2022/04/05 09:29:09;;;;;;;13.00;7.38;;;;;;;17.16;38.45;99586.94;5079460;28;20031;-74
2022/04/05 09:31:43;;;;;;;12.50;7.90;;;;;;;16.86;39.45;99602.63;5079561;28;20453;-74
2022/04/05 09:34:16;;;;;;;11.57;7.70;;;;;;;16.66;39.14;99594.59;5079709;28;20036;-76
2022/04/05 09:36:50;;;;;;;14.77;7.97;;;;;;;16.68;39.50;99591.72;5079172;28;20020;-74
2022/04/05 09:39:16;;;;;;;15.00;7.00;;;;;;;16.99;39.91;99602.59;5079871;28;20100;-78
2022/04/05 09:41:42;;;;;;;15.27;9.63;;;;;;;17.21;38.48;99595.16;5077723;28;20033;-74
2022/04/05 09:44:07;;;;;;;18.75;11.40;;;;;;;17.13;39.29;99590.03;5079175;28;20099;-78
2022/04/05 09:46:35;;;;;;;15.80;9.88;;;;;;;17.26;39.23;99582.00;5077943;28;20318;-74
2022/04/05 09:49:04;;;;;;;15.50;9.25;;;;;;;17.27;38.90;99578.28;5079099;28;20356;-73
2022/04/05 09:51:46;;;;;;;7.32;5.03;;;;;;;17.34;38.29;99584.44;5077834;28;20219;-78
2022/04/05 09:54:19;;;;;;;10.00;6.38;;;;;;;16.61;39.01;99584.44;5077814;28;20051;-78
2022/04/05 09:56:45;;;;;;;8.52;6.47;;;;;;;16.91;38.85;99582.25;5076641;28;20335;-77
2022/04/05 09:59:18;;;;;;;9.77;5.93;;;;;;;16.86;38.93;99567.84;5079854;28;20036;-74
2022/04/05 10:01:46;;;;;;;7.78;5.80;;;;;;;17.32;38.36;99569.63;5078967;28;20049;-74
2022/04/05 10:04:14;;;;;;;13.07;6.45;;;;;;;17.51;37.40;99558.84;5078838;28;20013;-74
2022/04/05 10:06:44;;;;;;;10.75;6.20;;;;;;;17.50;37.46;99564.41;5078657;28;20058;-77
2022/04/05 10:09:11;;;;;;;8.88;5.80;;;;;;;17.53;38.29;99566.69;5079765;28;20175;-77
2022/04/05 10:11:38;;;;;;;7.05;5.47;;;;;;;17.39;36.43;99555.19;5078160;28;21289;-74
2022/04/05 10:14:05;;;;;;;9.18;5.70;;;;;;;17.41;36.77;99553.13;5078502;28;20036;-77
2022/04/05 10:16:32;;;;;;;10.30;6.28;;;;;;;17.41;37.43;99545.09;5079237;28;20061;-74
2022/04/05 10:19:00;;;;;;;10.40;6.20;;;;;;;17.45;36.88;99556.22;5079541;28;20029;-74
2022/04/05 10:21:30;;;;;;;11.25;6.95;;;;;;;17.59;36.74;99535.56;5078657;28;20035;-78
2022/04/05 10:23:57;;;;;;;8.23;5.47;;;;;;;17.73;35.10;99540.72;5077243;28;20307;-78
2022/04/05 10:26:26;;;;;;;17.63;10.65;;;;;;;17.21;36.37;99547.84;5078130;28;20100;-74
2022/04/05 10:28:53;;;;;;;10.75;6.00;;;;;;;16.94;36.38;99538.22;5078315;28;20376;-74
2022/04/05 10:31:57;;;;;;;11.50;5.70;;;;;;;16.88;37.93;99534.53;5076517;28;20252;-78
2022/04/05 10:34:27;;;;;;;8.23;5.97;;;;;;;16.48;38.79;99533.66;5078604;28;20033;-74
2022/04/05 10:37:17;;;;;;;10.85;5.78;;;;;;;16.49;38.65;99527.28;5077665;28;20044;-74
2022/04/05 10:40:03;;;;;;;10.77;6.20;;;;;;;16.52;38.73;99510.84;5078112;28;20044;-78
2022/04/05 10:42:40;;;;;;;13.95;5.85;;;;;;;16.72;38.54;99502.88;5077249;28;20032;-78
2022/04/05 10:45:15;;;;;;;7.97;5.70;;;;;;;17.00;38.19;99513.31;5077995;28;20029;-78
2022/04/05 10:47:58;;;;;;;8.25;5.38;;;;;;;16.76;38.89;99512.13;5077116;28;20021;-74
2022/04/05 10:50:25;;;;;;;10.15;6.20;;;;;;;16.41;37.86;99503.44;5078742;28;20032;-74
2022/04/05 10:53:15;;;;;;;12.05;5.57;;;;;;;16.61;38.95;99493.56;5077959;28;20318;-78
2022/04/05 10:56:09;;;;;;;9.13;5.50;;;;;;;16.70;40.22;99496.91;5077872;28;20024;-74
2022/04/05 10:59:04;;;;;;;10.65;5.53;;;;;;;16.52;38.16;99478.75;5076622;28;20139;-78
2022/04/05 11:01:43;;;;;;;;;;;;;;;16.87;38.46;99486.59;5077678;28;20243;-78
2022/04/05 11:04:16;;;;;;;10.30;5.25;;;;;;;16.93;37.76;99477.72;5076901;28;19912;-78
2022/04/05 11:07:03;;;;;;;7.55;4.32;;;;;;;16.90;35.83;99478.97;5078380;28;20032;-75
2022/04/05 11:09:52;;;;;;;6.50;5.00;;;;;;;17.10;35.27;99470.06;5077187;28;20040;-78
2022/04/05 11:12:28;;;;;;;7.32;5.13;;;;;;;16.60;37.60;99459.03;5076674;28;20048;-75
2022/04/05 11:14:57;;;;;;;9.57;4.60;;;;;;;16.39;36.97;99478.78;5077611;28;20096;-78
2022/04/05 11:17:25;;;;;;;9.02;5.03;;;;;;;16.44;36.84;99465.63;5076653;28;20292;-74
2022/04/05 11:19:53;;;;;;;5.50;4.35;;;;;;;16.35;36.71;99455.34;5076908;28;20024;-78
2022/04/05 11:22:22;;;;;;;9.68;5.55;;;;;;;16.21;38.49;99463.34;5077297;28;20310;-73
2022/04/05 11:25:04;;;;;;;6.90;4.57;;;;;;;16.05;37.90;99461.09;5077351;28;20040;-74